Time;durP1;ratioP1;P1;durP2;ratioP2;P2;SDS_P1;SDS_P2;PMS_P1;PMS_P2;Temp;Humidity;BMP_temperature;BMP_pressure;BME280_temperature;BME280_humidity;BME280_pressure;Samples;Min_cycle;Max_cycle;Signal;HPM_P1;HPM_P2
2021/05/02 00:01:38;;;;;;;4.07;1.42;;;15.60;71.90;;;;;;5073064;28;20378;-61
2021/05/02 00:04:05;;;;;;;2.25;1.50;;;15.60;71.00;;;;;;5072925;28;20081;-61
2021/05/02 00:06:31;;;;;;;2.13;1.40;;;16.00;70.50;;;;;;5073046;28;20170;-61
2021/05/02 00:08:56;;;;;;;2.67;1.50;;;15.50;70.40;;;;;;5072313;28;20032;-61
2021/05/02 00:11:23;;;;;;;2.30;1.48;;;15.60;70.70;;;;;;5071719;28;20029;-61
2021/05/02 00:13:49;;;;;;;1.58;1.45;;;15.80;70.10;;;;;;5072691;28;20082;-61
2021/05/02 00:16:15;;;;;;;1.55;1.45;;;15.60;70.60;;;;;;5073110;28;20021;-61
2021/05/02 00:18:41;;;;;;;1.50;1.40;;;15.40;71.40;;;;;;5072531;28;20023;-61
2021/05/02 00:21:09;;;;;;;1.92;1.50;;;15.60;72.70;;;;;;5072770;28;20104;-61
2021/05/02 00:23:37;;;;;;;3.03;1.73;;;15.90;73.70;;;;;;5073142;28;20028;-61
2021/05/02 00:26:04;;;;;;;2.28;1.50;;;15.90;73.90;;;;;;5071358;28;20021;-62
2021/05/02 00:28:31;;;;;;;1.35;1.25;;;15.50;73.00;;;;;;5071974;28;20098;-61
2021/05/02 00:30:58;;;;;;;3.55;1.42;;;15.50;73.60;;;;;;5072505;28;20021;-61
2021/05/02 00:33:23;;;;;;;1.50;1.40;;;15.50;72.70;;;;;;5072742;28;20063;-63
2021/05/02 00:35:50;;;;;;;2.40;1.70;;;15.50;71.50;;;;;;5072440;28;20072;-61
2021/05/02 00:38:16;;;;;;;1.67;1.40;;;15.50;71.40;;;;;;5072325;28;20075;-61
2021/05/02 00:40:43;;;;;;;1.98;1.30;;;16.10;72.10;;;;;;5072549;28;20056;-61
2021/05/02 00:43:13;;;;;;;1.75;1.65;;;15.50;72.90;;;;;;5072618;28;20016;-61
2021/05/02 00:46:02;;;;;;;1.42;1.30;;;15.50;72.70;;;;;;5072875;28;20028;-61
2021/05/02 00:48:30;;;;;;;1.98;1.60;;;15.40;72.20;;;;;;5034751;28;20036;-61
2021/05/02 00:51:02;;;;;;;2.85;1.65;;;15.30;73.90;;;;;;5072374;28;20111;-61
2021/05/02 00:53:54;;;;;;;1.67;1.58;;;15.40;75.80;;;;;;5072429;28;20021;-61
2021/05/02 00:56:28;;;;;;;3.17;1.77;;;15.70;74.00;;;;;;5072649;28;20116;-61
2021/05/02 00:59:03;;;;;;;2.13;1.50;;;15.40;71.60;;;;;;5071065;28;20126;-61
2021/05/02 01:01:39;;;;;;;3.38;1.50;;;15.30;65.70;;;;;;5072173;28;20020;-61
2021/05/02 01:04:06;;;;;;;2.15;1.60;;;15.30;93.30;;;;;;5072189;28;20070;-61
2021/05/02 01:06:32;;;;;;;1.63;1.33;;;15.40;71.00;;;;;;5072086;28;20032;-61
2021/05/02 01:09:03;;;;;;;2.10;1.42;;;15.40;70.80;;;;;;5072225;28;20083;-61
2021/05/02 01:11:29;;;;;;;2.65;1.75;;;15.30;71.70;;;;;;5072418;28;20025;-61
2021/05/02 01:14:00;;;;;;;2.20;1.33;;;15.30;71.60;;;;;;5070608;28;20020;-61
2021/05/02 01:16:28;;;;;;;2.25;1.65;;;14.40;71.50;;;;;;5072239;28;20071;-61
2021/05/02 01:18:55;;;;;;;4.65;1.92;;;15.30;72.60;;;;;;5072120;28;20236;-61
2021/05/02 01:21:30;;;;;;;2.00;1.27;;;16.10;72.00;;;;;;5072182;28;20029;-61
2021/05/02 01:23:58;;;;;;;1.50;1.35;;;15.70;71.00;;;;;;5071959;28;20074;-61
2021/05/02 01:26:25;;;;;;;1.55;1.45;;;15.40;70.70;;;;;;5072165;28;20043;-61
2021/05/02 01:28:52;;;;;;;1.40;1.30;;;15.80;70.90;;;;;;5072041;28;20073;-61
2021/05/02 01:31:17;;;;;;;2.95;1.65;;;15.30;70.70;;;;;;5070533;28;20029;-61
2021/05/02 01:33:43;;;;;;;2.13;1.40;;;15.30;70.70;;;;;;5072179;28;20032;-61
2021/05/02 01:36:10;;;;;;;4.05;1.75;;;15.40;70.10;;;;;;5071701;28;20052;-61
2021/05/02 01:38:36;;;;;;;1.70;1.55;;;15.10;70.40;;;;;;5071844;28;20041;-61
2021/05/02 01:41:01;;;;;;;2.03;1.30;;;15.30;70.80;;;;;;5073989;28;20023;-61
2021/05/02 01:43:27;;;;;;;1.30;1.20;;;15.30;71.60;;;;;;5075257;28;20503;-61
2021/05/02 01:45:53;;;;;;;3.08;1.40;;;15.50;71.10;;;;;;5075739;28;20128;-61
2021/05/02 01:48:21;;;;;;;1.80;1.60;;;15.40;70.50;;;;;;5075368;28;20400;-61
2021/05/02 01:50:51;;;;;;;5.35;1.80;;;15.20;71.00;;;;;;5074229;28;20434;-61
2021/05/02 01:53:18;;;;;;;1.88;1.60;;;15.30;71.00;;;;;;5075026;28;20024;-61
2021/05/02 01:55:46;;;;;;;2.53;1.17;;;15.30;72.10;;;;;;5075397;28;20406;-61
2021/05/02 01:58:12;;;;;;;1.30;1.20;;;15.40;71.80;;;;;;5075294;28;20377;-61
2021/05/02 02:00:50;;;;;;;1.63;1.38;;;15.30;70.90;;;;;;5075288;28;20572;-61
2021/05/02 02:03:18;;;;;;;1.70;1.52;;;15.20;66.70;;;;;;5075208;28;20021;-61
2021/05/02 02:05:44;;;;;;;1.48;1.17;;;15.60;71.60;;;;;;5073752;28;20136;-61
2021/05/02 02:08:10;;;;;;;2.70;1.40;;;15.20;70.40;;;;;;5075311;28;20528;-61
2021/05/02 02:10:36;;;;;;;1.25;1.13;;;15.20;70.70;;;;;;5073803;28;20025;-61
2021/05/02 02:13:03;;;;;;;1.65;1.20;;;15.20;70.50;;;;;;5073392;28;20032;-61
2021/05/02 02:15:30;;;;;;;1.20;1.10;;;15.20;70.40;;;;;;5075068;28;20017;-61
2021/05/02 02:17:58;;;;;;;2.90;1.42;;;15.20;70.80;;;;;;5074938;28;20033;-61
2021/05/02 02:20:25;;;;;;;1.75;1.30;;;15.20;70.90;;;;;;5074968;28;20373;-61
2021/05/02 02:22:56;;;;;;;2.35;1.60;;;15.00;71.10;;;;;;5074930;28;20020;-61
2021/05/02 02:25:26;;;;;;;1.48;1.38;;;15.20;70.60;;;;;;5075205;28;20074;-61
2021/05/02 02:27:55;;;;;;;1.88;1.20;;;15.20;70.50;;;;;;5074875;28;20108;-61
2021/05/02 02:30:21;;;;;;;3.47;1.48;;;15.20;70.40;;;;;;5074701;28;20081;-61
2021/05/02 02:32:48;;;;;;;2.95;1.42;;;15.20;69.60;;;;;;5074372;28;20024;-61
2021/05/02 02:35:16;;;;;;;1.58;1.35;;;15.10;69.40;;;;;;5073340;28;20385;-61
2021/05/02 02:37:47;;;;;;;2.53;1.30;;;15.10;69.30;;;;;;5074595;28;20147;-61
2021/05/02 02:40:15;;;;;;;1.38;1.27;;;14.90;69.20;;;;;;5073306;28;20146;-61
2021/05/02 02:42:45;;;;;;;1.65;1.20;;;15.10;69.80;;;;;;5074127;28;20028;-61
2021/05/02 02:45:12;;;;;;;;;;;15.10;69.80;;;;;;5075158;28;20030;-61
2021/05/02 02:47:45;;;;;;;1.98;1.35;;;14.70;67.80;;;;;;5074623;28;19912;-61
2021/05/02 02:50:14;;;;;;;1.48;1.38;;;15.10;67.40;;;;;;5074435;28;20078;-61
2021/05/02 02:52:55;;;;;;;3.15;1.50;;;15.00;68.60;;;;;;5073676;28;20035;-61
2021/05/02 02:55:24;;;;;;;1.40;1.30;;;15.10;68.60;;;;;;5074650;28;20099;-60
2021/05/02 02:58:00;;;;;;;3.65;1.50;;;15.50;69.20;;;;;;5074743;28;20183;-61
2021/05/02 03:00:31;;;;;;;1.65;1.13;;;15.00;64.70;;;;;;5074349;28;20101;-61
2021/05/02 03:03:02;;;;;;;;;;;15.20;68.70;;;;;;5074783;28;20078;-61
2021/05/02 03:05:28;;;;;;;1.20;1.10;;;15.40;68.80;;;;;;5074433;28;19973;-61
2021/05/02 03:07:53;;;;;;;2.05;1.45;;;14.90;67.90;;;;;;5074012;28;20389;-61
2021/05/02 03:10:20;;;;;;;1.55;1.38;;;15.00;68.20;;;;;;5072736;28;20021;-61
2021/05/02 03:12:49;;;;;;;2.22;1.70;;;15.50;68.40;;;;;;5074037;28;20489;-61
2021/05/02 03:15:15;;;;;;;1.53;1.40;;;15.50;68.20;;;;;;5073957;28;20074;-61
2021/05/02 03:17:44;;;;;;;1.70;1.35;;;15.00;67.40;;;;;;5074119;28;20032;-61
2021/05/02 03:20:14;;;;;;;1.80;1.40;;;15.50;68.20;;;;;;5073860;28;20399;-61
2021/05/02 03:22:48;;;;;;;2.17;1.38;;;15.00;67.90;;;;;;5073793;28;20418;-61
2021/05/02 03:25:15;;;;;;;3.42;1.40;;;15.50;67.80;;;;;;5073695;28;20021;-61
2021/05/02 03:27:49;;;;;;;3.95;1.27;;;15.50;68.40;;;;;;5072251;28;20032;-61
2021/05/02 03:30:15;;;;;;;1.85;1.30;;;15.00;68.10;;;;;;5073941;28;20047;-61
2021/05/02 03:32:47;;;;;;;1.95;1.10;;;14.90;66.50;;;;;;5073865;28;20621;-61
2021/05/02 03:35:13;;;;;;;1.67;1.33;;;15.00;68.20;;;;;;5073367;28;20043;-61
2021/05/02 03:37:43;;;;;;;2.15;1.30;;;14.90;67.70;;;;;;5073810;28;20024;-61
2021/05/02 03:40:09;;;;;;;1.30;1.20;;;14.90;67.90;;;;;;5072138;28;20017;-61
2021/05/02 03:42:34;;;;;;;1.95;1.13;;;14.90;66.80;;;;;;5073249;28;20029;-61
2021/05/02 03:45:01;;;;;;;1.42;1.02;;;15.50;68.00;;;;;;5073279;28;20032;-61
2021/05/02 03:47:26;;;;;;;2.67;1.50;;;15.00;68.30;;;;;;5072220;28;20029;-61
2021/05/02 03:49:52;;;;;;;1.33;1.10;;;14.90;68.00;;;;;;5073170;28;20027;-61
2021/05/02 03:52:17;;;;;;;1.73;1.20;;;14.90;68.60;;;;;;5073059;28;20031;-61
2021/05/02 03:54:43;;;;;;;2.45;1.20;;;15.30;68.50;;;;;;5073083;28;20074;-61
2021/05/02 03:57:09;;;;;;;1.95;1.50;;;15.40;68.60;;;;;;5073080;28;20079;-61
2021/05/02 03:59:35;;;;;;;2.28;1.40;;;15.00;68.10;;;;;;5073322;28;20069;-61
2021/05/02 04:02:03;;;;;;;1.58;1.02;;;14.90;68.00;;;;;;5072914;28;20388;-61
2021/05/02 04:04:31;;;;;;;2.03;1.00;;;15.00;68.30;;;;;;5072364;28;20017;-61
2021/05/02 04:07:01;;;;;;;1.92;1.40;;;14.90;68.40;;;;;;5073084;28;20055;-61
2021/05/02 04:09:27;;;;;;;1.70;1.00;;;14.80;64.00;;;;;;5072863;28;20028;-61
2021/05/02 04:11:53;;;;;;;2.75;1.55;;;14.90;67.90;;;;;;5072803;28;20028;-61
2021/05/02 04:14:19;;;;;;;3.05;1.17;;;15.20;68.50;;;;;;5072715;28;20610;-61
2021/05/02 04:16:56;;;;;;;3.83;1.20;;;15.10;68.60;;;;;;5073108;28;20024;-61
2021/05/02 04:19:22;;;;;;;1.10;0.98;;;15.40;69.30;;;;;;5072803;28;20025;-61
2021/05/02 04:21:48;;;;;;;2.13;1.10;;;15.30;69.20;;;;;;5072877;28;20124;-61
2021/05/02 04:24:14;;;;;;;2.72;1.20;;;14.80;68.90;;;;;;5073029;28;20086;-61
2021/05/02 04:26:44;;;;;;;2.97;1.40;;;14.70;68.50;;;;;;5072678;28;20146;-61
2021/05/02 04:29:10;;;;;;;1.40;1.02;;;14.70;69.00;;;;;;5072914;28;20028;-61
2021/05/02 04:31:36;;;;;;;1.25;1.15;;;14.80;68.90;;;;;;5072642;28;20031;-61
2021/05/02 04:34:03;;;;;;;1.80;0.98;;;14.70;69.30;;;;;;5071643;28;20099;-61
2021/05/02 04:36:28;;;;;;;1.30;1.20;;;14.70;70.00;;;;;;5072448;28;20535;-61
2021/05/02 04:38:54;;;;;;;2.08;1.00;;;14.80;70.30;;;;;;5072846;28;20048;-61
2021/05/02 04:41:20;;;;;;;1.48;0.90;;;14.90;69.40;;;;;;5072689;28;20042;-61
2021/05/02 04:43:45;;;;;;;1.60;1.35;;;14.80;69.50;;;;;;5072320;28;20470;-61
2021/05/02 04:46:11;;;;;;;1.98;1.20;;;14.80;68.80;;;;;;5072496;28;20071;-60
2021/05/02 04:48:40;;;;;;;1.02;1.00;;;15.20;69.30;;;;;;5072378;28;20032;-61
2021/05/02 04:51:06;;;;;;;1.33;1.02;;;14.80;69.90;;;;;;5072371;28;20020;-61
2021/05/02 04:53:32;;;;;;;1.20;1.10;;;15.00;69.10;;;;;;5072344;28;20111;-61
2021/05/02 04:55:57;;;;;;;1.67;0.82;;;15.10;69.80;;;;;;5071086;28;20031;-61
2021/05/02 04:58:23;;;;;;;1.20;1.00;;;14.70;69.10;;;;;;5071376;28;20024;-61
2021/05/02 05:00:48;;;;;;;1.05;0.95;;;14.80;68.00;;;;;;5072250;28;20468;-61
2021/05/02 05:03:16;;;;;;;1.77;0.98;;;14.60;67.30;;;;;;5072444;28;20024;-61
2021/05/02 05:05:41;;;;;;;1.25;1.00;;;14.80;67.60;;;;;;5072250;28;20021;-61
2021/05/02 05:08:07;;;;;;;2.15;1.10;;;15.10;68.00;;;;;;5072086;28;20043;-61
2021/05/02 05:10:32;;;;;;;1.40;0.90;;;14.70;67.50;;;;;;5070936;28;20115;-61
2021/05/02 05:12:58;;;;;;;4.30;1.50;;;15.20;68.20;;;;;;5072104;28;20017;-61
2021/05/02 05:15:24;;;;;;;1.23;1.00;;;14.90;67.70;;;;;;5072122;28;20492;-61
2021/05/02 05:17:49;;;;;;;3.28;1.30;;;14.70;67.60;;;;;;5076124;28;20032;-61
2021/05/02 05:20:15;;;;;;;1.95;1.20;;;14.80;68.20;;;;;;5076211;28;20019;-61
2021/05/02 05:22:40;;;;;;;1.67;0.80;;;15.10;68.60;;;;;;5075974;28;20444;-61
2021/05/02 05:25:07;;;;;;;1.05;0.95;;;14.80;68.40;;;;;;5074751;28;20427;-61
2021/05/02 05:27:32;;;;;;;1.08;0.98;;;14.60;66.10;;;;;;5075788;28;20473;-61
2021/05/02 05:29:58;;;;;;;2.38;1.15;;;14.70;67.80;;;;;;5075850;28;20059;-60
2021/05/02 05:32:23;;;;;;;1.40;1.30;;;14.90;68.10;;;;;;5075800;28;20024;-62
2021/05/02 05:34:49;;;;;;;1.20;1.10;;;14.90;67.70;;;;;;5075794;28;20408;-61
2021/05/02 05:37:15;;;;;;;1.65;1.23;;;14.70;67.30;;;;;;5075728;28;20465;-61
2021/05/02 05:39:41;;;;;;;1.70;0.90;;;14.70;67.30;;;;;;5075936;28;20039;-61
2021/05/02 05:42:07;;;;;;;1.38;0.88;;;14.60;67.60;;;;;;5075863;28;20024;-61
2021/05/02 05:44:33;;;;;;;1.33;1.02;;;15.10;68.20;;;;;;5074291;28;20495;-61
2021/05/02 05:46:58;;;;;;;1.33;1.00;;;14.40;67.90;;;;;;5074155;28;20033;-61
2021/05/02 05:49:24;;;;;;;1.55;1.00;;;14.80;67.90;;;;;;5075807;28;20116;-61
2021/05/02 05:51:53;;;;;;;1.42;1.00;;;15.20;68.40;;;;;;5075738;28;20044;-61
2021/05/02 05:54:22;;;;;;;1.20;1.10;;;14.90;68.60;;;;;;5075465;28;20051;-61
2021/05/02 05:56:48;;;;;;;1.73;0.75;;;14.50;68.70;;;;;;5074238;28;20108;-61
2021/05/02 05:59:14;;;;;;;2.03;1.10;;;14.70;67.50;;;;;;5075420;28;20132;-61
2021/05/02 06:01:40;;;;;;;1.63;1.00;;;14.60;67.60;;;;;;5074086;28;20385;-61
2021/05/02 06:04:06;;;;;;;1.08;0.90;;;14.70;67.80;;;;;;5075452;28;20012;-61
2021/05/02 06:06:36;;;;;;;1.55;0.70;;;15.50;68.00;;;;;;5075452;28;20056;-61
2021/05/02 06:09:04;;;;;;;3.55;1.25;;;15.60;67.90;;;;;;5075065;28;20020;-61
2021/05/02 06:11:29;;;;;;;1.83;0.90;;;14.70;66.60;;;;;;5075188;28;20048;-61
2021/05/02 06:13:56;;;;;;;0.80;0.70;;;14.80;67.20;;;;;;5073836;28;20070;-61
2021/05/02 06:16:21;;;;;;;1.00;0.90;;;15.60;68.00;;;;;;5073797;28;20111;-60
2021/05/02 06:18:47;;;;;;;1.48;0.82;;;14.80;68.00;;;;;;5075487;28;20059;-60
2021/05/02 06:21:13;;;;;;;1.80;0.80;;;14.90;67.90;;;;;;5074939;28;20021;-60
2021/05/02 06:23:38;;;;;;;1.95;1.00;;;14.90;68.00;;;;;;5074924;28;20032;-60
2021/05/02 06:26:05;;;;;;;3.65;0.93;;;15.20;67.00;;;;;;5074952;28;20020;-60
2021/05/02 06:28:30;;;;;;;2.10;1.13;;;15.00;66.80;;;;;;5073821;28;20028;-60
2021/05/02 06:30:56;;;;;;;2.35;1.00;;;15.70;67.30;;;;;;5074843;28;20473;-61
2021/05/02 06:33:23;;;;;;;2.03;0.80;;;15.10;67.20;;;;;;5074772;28;20032;-60
2021/05/02 06:35:49;;;;;;;2.50;0.77;;;15.40;66.90;;;;;;5074615;28;20056;-59
2021/05/02 06:38:14;;;;;;;2.05;1.02;;;15.10;66.10;;;;;;5074906;28;20126;-60
2021/05/02 06:40:40;;;;;;;1.52;1.00;;;15.10;65.90;;;;;;5073395;28;20104;-60
2021/05/02 06:43:06;;;;;;;0.93;0.60;;;15.10;65.90;;;;;;5074689;28;20469;-58
2021/05/02 06:45:32;;;;;;;0.82;0.77;;;15.10;65.80;;;;;;5074891;28;20052;-59
2021/05/02 06:47:58;;;;;;;1.33;0.73;;;15.10;65.90;;;;;;5074466;28;20082;-60
2021/05/02 06:50:23;;;;;;;0.98;0.73;;;15.50;65.70;;;;;;5074448;28;20043;-59
2021/05/02 06:52:49;;;;;;;2.50;0.90;;;15.10;65.70;;;;;;5074454;28;20029;-59
2021/05/02 06:55:14;;;;;;;1.50;0.50;;;15.30;65.40;;;;;;5074346;28;20025;-60
2021/05/02 06:57:40;;;;;;;1.50;0.60;;;15.20;65.20;;;;;;5074377;28;20029;-60
2021/05/02 07:00:06;;;;;;;1.98;0.70;;;15.20;65.10;;;;;;5074429;28;20625;-60
2021/05/02 07:02:32;;;;;;;3.45;1.00;;;15.20;63.60;;;;;;5074321;28;20039;-60
2021/05/02 07:04:57;;;;;;;2.55;1.00;;;15.60;64.60;;;;;;5074250;28;20469;-60
2021/05/02 07:07:23;;;;;;;2.30;0.75;;;15.60;64.50;;;;;;5073990;28;20031;-60
2021/05/02 07:09:48;;;;;;;0.80;0.70;;;15.30;64.30;;;;;;5074202;28;20029;-60
2021/05/02 07:12:15;;;;;;;1.63;0.88;;;15.50;64.40;;;;;;5074127;28;20040;-60
2021/05/02 07:14:41;;;;;;;2.00;0.90;;;15.60;64.30;;;;;;5072774;28;20063;-60
2021/05/02 07:17:07;;;;;;;0.90;0.60;;;15.50;64.30;;;;;;5073943;28;20048;-60
2021/05/02 07:19:34;;;;;;;2.05;0.95;;;15.40;63.50;;;;;;5074168;28;20021;-60
2021/05/02 07:22:04;;;;;;;0.82;0.77;;;15.70;63.60;;;;;;5073945;28;20028;-60
2021/05/02 07:24:30;;;;;;;1.13;0.70;;;15.70;59.90;;;;;;5074220;28;20032;-61
2021/05/02 07:26:55;;;;;;;1.00;0.70;;;15.50;63.00;;;;;;5073624;28;20142;-61
2021/05/02 07:29:21;;;;;;;1.73;0.98;;;15.40;62.90;;;;;;5073734;28;20020;-61
2021/05/02 07:31:47;;;;;;;2.30;0.80;;;15.40;62.80;;;;;;5073778;28;20111;-63
2021/05/02 07:34:12;;;;;;;0.93;0.68;;;15.40;62.50;;;;;;5073934;28;20031;-62
2021/05/02 07:36:38;;;;;;;4.07;0.93;;;15.40;62.20;;;;;;5073407;28;20074;-62
2021/05/02 07:39:08;;;;;;;11.40;1.65;;;15.50;63.40;;;;;;5073507;28;20055;-63
2021/05/02 07:41:33;;;;;;;9.23;1.10;;;15.60;67.10;;;;;;5073799;28;20029;-62
2021/05/02 07:43:59;;;;;;;5.68;0.98;;;15.70;64.60;;;;;;5072159;28;20036;-62
2021/05/02 07:46:25;;;;;;;5.18;1.38;;;15.40;64.30;;;;;;5072046;28;20107;-62
2021/05/02 07:48:51;;;;;;;6.05;1.05;;;15.70;64.00;;;;;;5073625;28;20586;-62
2021/05/02 07:51:17;;;;;;;6.70;0.88;;;15.60;64.40;;;;;;5073622;28;20388;-62
2021/05/02 07:53:43;;;;;;;3.72;0.88;;;15.60;63.90;;;;;;5073655;28;20036;-62
2021/05/02 07:56:08;;;;;;;2.17;0.82;;;16.30;64.00;;;;;;5072055;28;20013;-62
2021/05/02 07:58:34;;;;;;;4.88;0.77;;;15.60;63.10;;;;;;5073039;28;20103;-62
2021/05/02 08:01:00;;;;;;;6.15;0.90;;;15.90;63.60;;;;;;5073223;28;20119;-62
2021/05/02 08:03:25;;;;;;;8.35;1.05;;;15.70;63.50;;;;;;5073267;28;20016;-62
2021/05/02 08:05:51;;;;;;;2.08;0.60;;;15.60;63.40;;;;;;5073109;28;20476;-62
2021/05/02 08:08:17;;;;;;;2.65;0.60;;;16.10;62.90;;;;;;5073061;28;20028;-62
2021/05/02 08:10:42;;;;;;;1.52;0.90;;;16.70;62.40;;;;;;5073337;28;20025;-62
2021/05/02 08:13:08;;;;;;;3.05;0.88;;;15.90;61.80;;;;;;5071650;28;20028;-63
2021/05/02 08:15:34;;;;;;;2.15;0.93;;;15.90;61.80;;;;;;5072893;28;20023;-62
2021/05/02 08:18:01;;;;;;;3.30;0.80;;;16.00;61.70;;;;;;5071655;28;20036;-62
2021/05/02 08:20:27;;;;;;;2.63;0.70;;;16.20;61.40;;;;;;5072951;28;20016;-62
2021/05/02 08:22:53;;;;;;;2.38;0.73;;;16.10;61.10;;;;;;5073158;28;20024;-62
2021/05/02 08:25:20;;;;;;;1.83;0.50;;;16.30;61.00;;;;;;5072829;28;20025;-62
2021/05/02 08:27:47;;;;;;;4.60;0.90;;;16.40;60.70;;;;;;5072752;28;20404;-62
2021/05/02 08:30:14;;;;;;;3.75;0.80;;;16.70;59.70;;;;;;5072801;28;20095;-62
2021/05/02 08:32:40;;;;;;;1.60;0.50;;;16.70;59.20;;;;;;5072663;28;20037;-63
2021/05/02 08:35:06;;;;;;;2.15;0.50;;;16.90;59.90;;;;;;5072584;28;20404;-65
2021/05/02 08:37:32;;;;;;;1.60;0.50;;;16.80;58.40;;;;;;5072732;28;20040;-65
2021/05/02 08:39:57;;;;;;;0.60;0.60;;;16.80;59.30;;;;;;5072634;28;20477;-65
2021/05/02 08:42:23;;;;;;;4.40;0.85;;;16.90;59.20;;;;;;5072937;28;20097;-65
2021/05/02 08:44:50;;;;;;;5.47;0.75;;;16.70;59.00;;;;;;5072665;28;20028;-66
2021/05/02 08:47:15;;;;;;;1.88;0.52;;;16.90;59.00;;;;;;5072736;28;20075;-64
2021/05/02 08:49:42;;;;;;;3.33;0.88;;;16.90;58.80;;;;;;5070877;28;20048;-65
2021/05/02 08:52:09;;;;;;;3.65;0.50;;;16.80;58.50;;;;;;5072650;28;20436;-65
2021/05/02 08:54:35;;;;;;;0.93;0.40;;;16.80;58.30;;;;;;5071157;28;20017;-63
2021/05/02 08:57:00;;;;;;;0.47;0.47;;;16.90;58.20;;;;;;5072669;28;20122;-61
2021/05/02 08:59:26;;;;;;;2.85;0.68;;;16.60;57.80;;;;;;5054486;28;20022;-63
2021/05/02 09:01:56;;;;;;;1.50;0.60;;;16.80;58.40;;;;;;5072595;28;20032;-62
2021/05/02 09:04:21;;;;;;;2.38;0.40;;;16.90;58.50;;;;;;5072939;28;20021;-61
2021/05/02 09:06:47;;;;;;;0.82;0.60;;;17.00;58.30;;;;;;5072339;28;20021;-63
2021/05/02 09:09:13;;;;;;;1.13;0.50;;;16.90;58.60;;;;;;5072468;28;20549;-62
2021/05/02 09:11:40;;;;;;;4.32;0.68;;;17.00;58.50;;;;;;5072377;28;20524;-63
2021/05/02 09:14:31;;;;;;;0.95;0.52;;;17.90;59.60;;;;;;5072631;28;20224;-61
2021/05/02 09:17:11;;;;;;;1.08;0.50;;;17.30;56.80;;;;;;5072615;28;20056;-61
2021/05/02 09:19:46;;;;;;;1.60;0.52;;;17.10;55.30;;;;;;5072593;28;20073;-62
2021/05/02 09:22:13;;;;;;;1.83;0.63;;;17.90;58.90;;;;;;5072249;28;20043;-64
2021/05/02 09:24:40;;;;;;;0.50;0.40;;;17.40;58.80;;;;;;5072097;28;20020;-61
2021/05/02 09:27:12;;;;;;;0.82;0.32;;;17.60;58.50;;;;;;5072063;28;20064;-62
2021/05/02 09:29:41;;;;;;;1.50;0.63;;;17.40;54.70;;;;;;5072373;28;20025;-62
2021/05/02 09:32:08;;;;;;;2.35;0.60;;;17.50;57.50;;;;;;5072171;28;20028;-62
2021/05/02 09:34:35;;;;;;;2.25;0.60;;;17.40;57.70;;;;;;5071990;28;20024;-61
2021/05/02 09:37:07;;;;;;;2.72;0.50;;;17.80;57.60;;;;;;5071961;28;20048;-62
2021/05/02 09:39:39;;;;;;;1.95;0.70;;;17.40;54.60;;;;;;5072192;28;20105;-62
2021/05/02 09:42:14;;;;;;;1.00;0.63;;;17.50;58.00;;;;;;5071881;28;20082;-62
2021/05/02 09:44:48;;;;;;;0.75;0.47;;;17.40;54.70;;;;;;5072145;28;20040;-63
2021/05/02 09:47:21;;;;;;;2.30;0.52;;;17.40;54.70;;;;;;5071998;28;20067;-63
2021/05/02 09:50:11;;;;;;;2.53;0.63;;;17.50;57.70;;;;;;5072088;28;20025;-63
2021/05/02 09:52:39;;;;;;;2.67;0.60;;;17.40;54.80;;;;;;5070691;28;20503;-62
2021/05/02 09:55:28;;;;;;;3.05;0.95;;;17.60;57.90;;;;;;5072095;28;20056;-62
2021/05/02 09:57:58;;;;;;;3.92;0.65;;;17.50;54.70;;;;;;5071935;28;20023;-62
2021/05/02 10:00:32;;;;;;;0.95;0.60;;;17.60;57.90;;;;;;5072078;28;20047;-62
2021/05/02 10:03:00;;;;;;;3.05;0.65;;;17.50;54.40;;;;;;5072141;28;20036;-63
2021/05/02 10:05:26;;;;;;;1.88;0.77;;;17.70;57.50;;;;;;5075553;28;20028;-63
2021/05/02 10:07:52;;;;;;;3.70;0.68;;;17.60;57.20;;;;;;5075526;28;20036;-62
2021/05/02 10:10:19;;;;;;;1.13;0.60;;;17.70;56.90;;;;;;5075535;28;20103;-63
2021/05/02 10:12:52;;;;;;;2.00;0.40;;;17.60;57.30;;;;;;5075148;28;20043;-64
2021/05/02 10:15:22;;;;;;;1.05;0.40;;;17.80;57.10;;;;;;5075188;28;20027;-64
2021/05/02 10:17:49;;;;;;;;;;;17.70;56.60;;;;;;5075871;28;20094;-62
2021/05/02 10:20:15;;;;;;;1.65;0.70;;;17.20;56.60;;;;;;5075142;28;19959;-62
2021/05/02 10:22:41;;;;;;;2.53;0.55;;;18.10;56.30;;;;;;5075003;28;20020;-61
2021/05/02 10:25:10;;;;;;;4.30;0.60;;;17.90;55.70;;;;;;5074761;28;20035;-62
2021/05/02 10:27:45;;;;;;;3.13;0.65;;;17.80;54.20;;;;;;5073541;28;20198;-61
2021/05/02 10:30:29;;;;;;;1.05;0.38;;;17.80;55.60;;;;;;5073679;28;20024;-62
2021/05/02 10:33:07;;;;;;;1.48;0.57;;;17.80;53.40;;;;;;5075043;28;20016;-62
2021/05/02 10:35:47;;;;;;;5.18;0.68;;;18.70;56.10;;;;;;5074752;28;20052;-63
2021/05/02 10:38:15;;;;;;;0.60;0.40;;;17.80;52.60;;;;;;5074940;28;20103;-62
2021/05/02 10:40:41;;;;;;;1.10;0.40;;;18.20;55.50;;;;;;5074612;28;20043;-62
2021/05/02 10:43:42;;;;;;;5.97;0.60;;;18.10;55.40;;;;;;5074640;28;20016;-65
2021/05/02 10:46:09;;;;;;;1.55;0.60;;;17.90;55.10;;;;;;4992866;28;20411;-63
2021/05/02 10:48:36;;;;;;;1.50;0.40;;;18.60;55.70;;;;;;5058405;28;20131;-61
2021/05/02 10:51:03;;;;;;;2.40;0.47;;;18.00;55.30;;;;;;5073147;28;20025;-64
2021/05/02 10:53:29;;;;;;;1.60;0.43;;;18.10;55.30;;;;;;5074093;28;20477;-62
2021/05/02 10:56:01;;;;;;;1.83;0.57;;;17.80;55.20;;;;;;5074630;28;20032;-64
2021/05/02 10:58:28;;;;;;;3.45;0.70;;;18.10;53.00;;;;;;5074355;28;20017;-65
2021/05/02 11:01:00;;;;;;;2.08;0.30;;;17.80;55.10;;;;;;5074345;28;20050;-65
2021/05/02 11:03:38;;;;;;;0.80;0.60;;;17.70;54.80;;;;;;5074114;28;20070;-65
2021/05/02 11:06:04;;;;;;;2.13;0.50;;;18.00;55.50;;;;;;5074043;28;20070;-64
2021/05/02 11:08:46;;;;;;;1.17;0.40;;;17.70;54.70;;;;;;5074049;28;20090;-64
2021/05/02 11:11:33;;;;;;;1.13;0.63;;;17.70;55.40;;;;;;5073980;28;20083;-65
2021/05/02 11:14:08;;;;;;;2.15;0.65;;;18.20;53.20;;;;;;5073687;28;20404;-64
2021/05/02 11:16:46;;;;;;;1.60;0.63;;;17.50;55.50;;;;;;5072636;28;20025;-65
2021/05/02 11:19:34;;;;;;;1.25;0.50;;;17.70;55.50;;;;;;5073907;28;20032;-65
2021/05/02 11:22:04;;;;;;;4.10;0.47;;;17.60;55.30;;;;;;5072555;28;20218;-65
2021/05/02 11:24:43;;;;;;;2.65;0.60;;;17.60;53.00;;;;;;5074136;28;20369;-65
2021/05/02 11:27:28;;;;;;;2.03;0.50;;;17.90;55.90;;;;;;5072374;28;20052;-64
2021/05/02 11:30:09;;;;;;;1.88;0.60;;;17.50;52.50;;;;;;5073891;28;20131;-65
2021/05/02 11:32:38;;;;;;;1.08;0.57;;;17.60;52.60;;;;;;5073914;28;20127;-65
2021/05/02 11:35:40;;;;;;;1.35;0.70;;;17.50;55.20;;;;;;5073352;28;20816;-64
2021/05/02 11:38:06;;;;;;;2.72;0.82;;;17.50;52.30;;;;;;5068794;28;20143;-65
2021/05/02 11:40:32;;;;;;;2.00;0.70;;;18.40;55.30;;;;;;5073447;28;20024;-64
2021/05/02 11:43:04;;;;;;;2.28;0.40;;;17.50;54.70;;;;;;5073450;28;20017;-64
2021/05/02 11:45:49;;;;;;;1.60;0.77;;;17.50;52.30;;;;;;5072040;28;20431;-63
2021/05/02 11:48:30;;;;;;;2.25;0.50;;;17.50;52.20;;;;;;5073524;28;20058;-62
2021/05/02 11:51:07;;;;;;;0.68;0.45;;;17.50;52.20;;;;;;5073653;28;20027;-63
2021/05/02 11:53:50;;;;;;;0.98;0.35;;;17.50;54.90;;;;;;5073243;28;20032;-63
2021/05/02 11:56:19;;;;;;;1.45;0.50;;;17.80;55.20;;;;;;5071850;28;20090;-63
2021/05/02 11:58:45;;;;;;;0.30;0.30;;;17.60;54.50;;;;;;5073355;28;20025;-63
2021/05/02 12:01:19;;;;;;;1.05;0.32;;;17.70;54.10;;;;;;5071680;28;20021;-63
2021/05/02 12:03:46;;;;;;;1.25;0.40;;;17.70;54.50;;;;;;5073294;28;20024;-63
2021/05/02 12:06:26;;;;;;;0.88;0.40;;;17.60;54.30;;;;;;5072894;28;20031;-63
2021/05/02 12:08:52;;;;;;;1.45;0.68;;;17.60;54.40;;;;;;5072864;28;20085;-62
2021/05/02 12:11:18;;;;;;;0.80;0.50;;;17.80;54.10;;;;;;5072886;28;20024;-63
2021/05/02 12:13:50;;;;;;;1.08;0.55;;;17.60;53.80;;;;;;5072954;28;20385;-63
2021/05/02 12:16:27;;;;;;;1.02;0.32;;;17.90;54.30;;;;;;5072872;28;20028;-63
2021/05/02 12:19:04;;;;;;;0.43;0.30;;;17.50;51.50;;;;;;5073119;28;20048;-63
2021/05/02 12:21:35;;;;;;;1.08;0.30;;;17.50;51.50;;;;;;5072842;28;20032;-63
2021/05/02 12:24:11;;;;;;;1.00;0.55;;;17.60;54.40;;;;;;5071379;28;20107;-62
2021/05/02 12:26:47;;;;;;;0.70;0.52;;;17.50;51.60;;;;;;5072292;28;20055;-63
2021/05/02 12:29:26;;;;;;;0.68;0.50;;;17.50;51.70;;;;;;5072943;28;20036;-63
2021/05/02 12:31:54;;;;;;;0.40;0.38;;;17.50;54.00;;;;;;5072920;28;20029;-63
2021/05/02 12:34:27;;;;;;;1.25;0.50;;;17.50;53.90;;;;;;5072583;28;20107;-63
2021/05/02 12:36:54;;;;;;;0.60;0.38;;;17.50;51.10;;;;;;5072454;28;20057;-63
2021/05/02 12:39:20;;;;;;;1.17;0.45;;;17.80;54.10;;;;;;5072541;28;20039;-64
2021/05/02 12:41:55;;;;;;;0.40;0.38;;;17.90;54.20;;;;;;5072863;28;20020;-63
2021/05/02 12:44:25;;;;;;;0.85;0.50;;;17.90;54.20;;;;;;5071207;28;20013;-63
2021/05/02 12:46:53;;;;;;;1.10;0.43;;;17.70;54.10;;;;;;5072469;28;20051;-63
2021/05/02 12:49:19;;;;;;;0.73;0.40;;;17.60;54.10;;;;;;5072569;28;20025;-63
2021/05/02 12:51:48;;;;;;;1.58;0.40;;;17.80;53.90;;;;;;5072464;28;20374;-63
2021/05/02 12:54:17;;;;;;;1.02;0.40;;;17.60;53.80;;;;;;5072495;28;20496;-63
2021/05/02 12:56:45;;;;;;;0.43;0.43;;;17.60;53.80;;;;;;5071066;28;20021;-63